Fort Lauderdale, FL (33311)

7:20 PM EDT on May 28, 2015 (GMT -0400)
Mills Pond Park Area | | Change Station
CLOSE
Current Station
Personal Weather Station
Location: Wilton Manors, FL
Elevation: 10 ft
Nearby Weather Stations

Elev 10 ft 26.16 °N, 80.16 °W | Updated 11 seconds ago

Partly Cloudy
Partly Cloudy
81.5 °F
Feels Like 83 °F
N
0.0
Wind Variable Wind from North
Gusts 6.0 mph

Today
High -- | Low -- °F
--% Chance of Precip.
Yesterday
High -- | Low -- °F
Precip. -- in
6:29 AM 8:06 PM
Waxing Gibbous, 79% visible
Pressure 30.07 in
Visibility 10.0 miles
Clouds Few 3400 ft
Mostly Cloudy 6000 ft
Overcast 7500 ft
Heat Index 83 °F
Dew Point 63 °F
Humidity 52%
Rainfall 0.00 in
Snow Depth Not available.
UV 0 out of 12
Pollen 4.20 out of 12
Air Quality Not available.
Flu Activity Sporadic
METAR KFXE 282253Z 08013G19KT 10SM FEW034 BKN060 OVC075 27/19 A3006 RMK AO2 SLP181 T02720189

More Conditions Fewer Conditions

Pressure 30.07 in
Visibility 10.0 miles
Clouds Few 3400 ft
Mostly Cloudy 6000 ft
Overcast 7500 ft
Heat Index 83 °F
Dew Point 63 °F
Humidity 52%
Rainfall 0.00 in
Snow Depth Not available.
UV 0 out of 12
Pollen 4.20 out of 12
Air Quality Not available.
Flu Activity Sporadic
METAR KFXE 282253Z 08013G19KT 10SM FEW034 BKN060 OVC075 27/19 A3006 RMK AO2 SLP181 T02720189

More Conditions Fewer Conditions

10-Day Weather Forecast

Almanac

Astronomy

May. 28, 2015 Rise Set
Actual Time
Civil Twilight
Nautical Twilight
Astronomical Twilight
Moon
Length of Visible Light
Length of Day
Tomorrow will be .
, % of the Moon is Illuminated

Today's Extremes

State Highs State Lows

Community

WunderPhotos

Upload Photos

1,825,091 photos uploaded!

WunderBlogs® & News

Nearby

Air Quality

  Air Quality AQ Index Pollutant
Not available.

Snow Depth

Station Depth Elevation

Earthquake Activity

City Distance Mag. Time & Date
Minimum magnitude displayed is 2.5.

Coastal Water Temperatures

Place Temperature

Stations

Nearby Weather Stations

Station Location Temp. Windchill Dew Point Humidity Wind Precip. Elev Updated Type